Time;durP1;ratioP1;P1;durP2;ratioP2;P2;SDS_P1;SDS_P2;PMS_P1;PMS_P2;Temp;Humidity;BMP_temperature;BMP_pressure;BME280_temperature;BME280_humidity;BME280_pressure;Samples;Min_cycle;Max_cycle;Signal;HPM_P1;HPM_P2
2021/08/23 00:00:07;;;;;;;;;;;16.80;99.90;;;;;;5075420;28;19924;-84
2021/08/23 00:02:33;;;;;;;;;;;16.70;99.90;;;;;;5075304;28;19931;-84
2021/08/23 00:05:00;;;;;;;;;;;16.70;99.90;;;;;;5075092;28;19928;-84
2021/08/23 00:07:27;;;;;;;;;;;16.70;99.90;;;;;;5075407;28;19935;-84
2021/08/23 00:09:54;;;;;;;;;;;16.70;99.90;;;;;;5075547;28;19935;-84
2021/08/23 00:12:21;;;;;;;;;;;16.70;99.90;;;;;;5075381;28;19936;-84
2021/08/23 00:14:49;;;;;;;;;;;16.70;99.90;;;;;;5075153;28;19954;-84
2021/08/23 00:17:16;;;;;;;;;;;16.70;99.90;;;;;;5075259;28;19931;-84
2021/08/23 00:19:43;;;;;;;;;;;16.70;99.90;;;;;;5074940;28;20364;-84
2021/08/23 00:22:20;;;;;;;;;;;16.70;99.90;;;;;;5075062;28;19935;-85
2021/08/23 00:24:48;;;;;;;;;;;16.70;99.90;;;;;;5075229;28;19938;-84
2021/08/23 00:27:16;;;;;;;;;;;16.70;99.90;;;;;;5075014;28;19934;-83
2021/08/23 00:29:44;;;;;;;;;;;16.70;99.90;;;;;;5074914;28;19940;-83
2021/08/23 00:32:16;;;;;;;;;;;16.70;99.90;;;;;;5074944;28;19928;-83
2021/08/23 00:34:43;;;;;;;;;;;16.70;99.90;;;;;;5075145;28;20355;-83
2021/08/23 00:37:11;;;;;;;;;;;16.70;99.90;;;;;;5074960;28;19935;-83
2021/08/23 00:39:38;;;;;;;;;;;16.70;99.90;;;;;;5075001;28;20371;-83
2021/08/23 00:42:05;;;;;;;;;;;16.70;99.90;;;;;;5075528;28;19925;-84
2021/08/23 00:44:32;;;;;;;;;;;16.70;99.90;;;;;;5079112;28;19924;-84
2021/08/23 00:46:59;;;;;;;;;;;16.70;99.90;;;;;;5079267;28;20020;-84
2021/08/23 00:49:27;;;;;;;;;;;16.70;99.90;;;;;;5079146;28;19925;-83
2021/08/23 00:51:54;;;;;;;;;;;16.70;99.90;;;;;;5078948;28;19924;-83
2021/08/23 00:54:21;;;;;;;;;;;16.60;99.90;;;;;;5077969;28;19946;-83
2021/08/23 00:56:48;;;;;;;;;;;16.60;99.90;;;;;;5078806;28;19935;-83
2021/08/23 00:59:15;;;;;;;;;;;16.60;99.90;;;;;;5078693;28;19924;-83
2021/08/23 01:01:45;;;;;;;;;;;16.60;99.90;;;;;;5078668;28;19935;-84
2021/08/23 01:04:15;;;;;;;;;;;16.60;99.90;;;;;;5078880;28;19932;-83
2021/08/23 01:06:43;;;;;;;;;;;16.70;99.90;;;;;;5078686;28;19924;-83
2021/08/23 01:09:11;;;;;;;;;;;16.60;99.90;;;;;;5078588;28;19961;-83
2021/08/23 01:11:41;;;;;;;;;;;16.60;99.90;;;;;;5078495;28;19935;-83
2021/08/23 01:14:07;;;;;;;;;;;16.60;99.90;;;;;;5078353;28;19948;-84
2021/08/23 01:16:34;;;;;;;;;;;16.60;99.90;;;;;;5078416;28;19934;-83
2021/08/23 01:19:01;;;;;;;;;;;16.60;99.90;;;;;;5078581;28;19929;-84
2021/08/23 01:21:29;;;;;;;;;;;16.60;99.90;;;;;;5078380;28;19932;-84
2021/08/23 01:23:57;;;;;;;;;;;16.60;99.90;;;;;;5078462;28;19935;-83
2021/08/23 01:26:24;;;;;;;;;;;16.60;99.90;;;;;;5078171;28;19924;-83
2021/08/23 01:28:52;;;;;;;;;;;16.60;99.90;;;;;;5078375;28;19928;-83
2021/08/23 01:31:22;;;;;;;;;;;16.60;99.90;;;;;;5078315;28;19924;-83
2021/08/23 01:33:50;;;;;;;;;;;16.60;99.90;;;;;;5078111;28;19932;-83
2021/08/23 01:36:17;;;;;;;;;;;16.60;99.90;;;;;;5078117;28;19928;-83
2021/08/23 01:38:44;;;;;;;;;;;16.60;99.90;;;;;;5078011;28;19924;-84
2021/08/23 01:41:11;;;;;;;;;;;16.60;99.90;;;;;;5077763;28;19925;-84
2021/08/23 01:43:37;;;;;;;;;;;16.60;99.90;;;;;;5077858;28;20333;-84
2021/08/23 01:46:04;;;;;;;;;;;16.60;99.90;;;;;;5077902;28;19924;-84
2021/08/23 01:48:32;;;;;;;;;;;16.60;99.90;;;;;;5077696;28;20333;-84
2021/08/23 01:51:06;;;;;;;;;;;16.60;99.90;;;;;;5077784;28;19924;-84
2021/08/23 01:53:36;;;;;;;;;;;16.60;99.90;;;;;;5077595;28;20386;-84
2021/08/23 01:56:04;;;;;;;;;;;16.60;99.90;;;;;;5077664;28;20440;-84
2021/08/23 01:58:32;;;;;;;;;;;16.60;99.90;;;;;;5077905;28;19971;-84
2021/08/23 02:00:59;;;;;;;;;;;16.60;99.90;;;;;;5077542;28;19932;-84
2021/08/23 02:03:27;;;;;;;;;;;16.60;99.90;;;;;;5077845;28;19935;-84
2021/08/23 02:05:56;;;;;;;;;;;16.60;99.90;;;;;;5077036;28;20132;-84
2021/08/23 02:08:24;;;;;;;;;;;16.60;99.90;;;;;;5077771;28;19939;-84
2021/08/23 02:10:51;;;;;;;;;;;16.60;99.90;;;;;;5077412;28;19925;-84
2021/08/23 02:13:18;;;;;;;;;;;16.60;99.90;;;;;;5077199;28;19935;-84
2021/08/23 02:15:45;;;;;;;;;;;16.60;99.90;;;;;;5077092;28;20033;-84
2021/08/23 02:18:11;;;;;;;;;;;16.60;99.90;;;;;;5077244;28;19924;-84
2021/08/23 02:20:38;;;;;;;;;;;16.50;99.90;;;;;;5077225;28;19925;-84
2021/08/23 02:23:05;;;;;;;;;;;16.60;99.90;;;;;;5077341;28;19939;-84
2021/08/23 02:25:33;;;;;;;;;;;16.60;99.90;;;;;;5077405;28;19977;-84
2021/08/23 02:28:00;;;;;;;;;;;16.60;99.90;;;;;;5077245;28;20267;-84
2021/08/23 02:30:27;;;;;;;;;;;16.60;99.90;;;;;;5077168;28;19932;-84
2021/08/23 02:32:54;;;;;;;;;;;16.60;99.90;;;;;;5077159;28;19925;-84
2021/08/23 02:35:21;;;;;;;;;;;16.50;99.90;;;;;;5076883;28;19924;-84
2021/08/23 02:37:48;;;;;;;;;;;16.50;99.90;;;;;;5076955;28;19932;-84
2021/08/23 02:40:14;;;;;;;;;;;16.50;99.90;;;;;;5076817;28;19934;-84
2021/08/23 02:42:43;;;;;;;;;;;16.50;99.90;;;;;;5076886;28;20348;-84
2021/08/23 02:45:10;;;;;;;;;;;16.40;99.90;;;;;;5076911;28;19924;-84
2021/08/23 02:47:37;;;;;;;;;;;16.40;99.90;;;;;;5076844;28;19925;-84
2021/08/23 02:50:04;;;;;;;;;;;16.40;99.90;;;;;;5076569;28;19929;-84
2021/08/23 02:52:31;;;;;;;;;;;16.40;99.90;;;;;;5076938;28;19967;-84
2021/08/23 02:54:57;;;;;;;;;;;16.40;99.90;;;;;;5076712;28;19928;-84
2021/08/23 02:57:24;;;;;;;;;;;16.40;99.90;;;;;;5076537;28;19925;-84
2021/08/23 02:59:52;;;;;;;;;;;16.40;99.90;;;;;;5076450;28;19924;-84
2021/08/23 03:02:19;;;;;;;;;;;16.40;99.90;;;;;;5076626;28;19924;-84
2021/08/23 03:04:46;;;;;;;;;;;16.40;99.90;;;;;;5075809;28;19925;-84
2021/08/23 03:07:13;;;;;;;;;;;16.50;99.90;;;;;;5076271;28;19924;-84
2021/08/23 03:09:40;;;;;;;;;;;16.50;99.90;;;;;;5076152;28;19939;-84
2021/08/23 03:12:07;;;;;;;;;;;16.50;99.90;;;;;;5076464;28;19924;-84
2021/08/23 03:14:33;;;;;;;;;;;16.50;99.90;;;;;;5076304;28;19935;-84
2021/08/23 03:17:02;;;;;;;;;;;16.50;99.90;;;;;;5076149;28;19924;-84
2021/08/23 03:19:29;;;;;;;;;;;16.50;99.90;;;;;;5076063;28;19924;-84
2021/08/23 03:21:55;;;;;;;;;;;16.50;99.90;;;;;;5076121;28;20341;-84
2021/08/23 03:24:22;;;;;;;;;;;16.50;99.90;;;;;;5076085;28;19924;-84
2021/08/23 03:26:49;;;;;;;;;;;16.50;99.90;;;;;;5076117;28;19935;-84
2021/08/23 03:29:16;;;;;;;;;;;16.50;99.90;;;;;;5075960;28;19946;-84
2021/08/23 03:31:43;;;;;;;;;;;16.50;99.90;;;;;;5075937;28;20383;-84
2021/08/23 03:34:12;;;;;;;;;;;16.50;99.90;;;;;;5075762;28;19928;-85
2021/08/23 03:36:39;;;;;;;;;;;16.50;99.90;;;;;;5075907;28;20018;-84
2021/08/23 03:39:07;;;;;;;;;;;16.50;99.90;;;;;;5075916;28;19935;-84
2021/08/23 03:41:34;;;;;;;;;;;16.50;99.90;;;;;;5075462;28;19932;-84
2021/08/23 03:44:01;;;;;;;;;;;16.50;99.90;;;;;;5075605;28;20383;-84
2021/08/23 03:46:28;;;;;;;;;;;16.50;99.90;;;;;;5075623;28;20333;-84
2021/08/23 03:48:55;;;;;;;;;;;16.50;99.90;;;;;;5075512;28;20248;-84
2021/08/23 03:51:23;;;;;;;;;;;16.50;99.90;;;;;;5075460;28;19924;-84
2021/08/23 03:53:50;;;;;;;;;;;16.50;99.90;;;;;;5075678;28;19924;-84
2021/08/23 03:56:16;;;;;;;;;;;16.50;99.90;;;;;;5075454;28;19931;-84
2021/08/23 03:58:43;;;;;;;;;;;16.50;99.90;;;;;;5075677;28;20250;-84
2021/08/23 04:01:10;;;;;;;;;;;16.50;99.90;;;;;;5075401;28;19925;-84
2021/08/23 04:03:37;;;;;;;;;;;16.50;99.90;;;;;;5075337;28;19925;-84
2021/08/23 04:06:04;;;;;;;;;;;16.50;99.90;;;;;;5075516;28;19925;-84
2021/08/23 04:08:32;;;;;;;;;;;16.50;99.90;;;;;;5075451;28;20049;-84
2021/08/23 04:10:59;;;;;;;;;;;16.50;99.90;;;;;;5075169;28;19935;-84
2021/08/23 04:13:26;;;;;;;;;;;16.50;99.90;;;;;;5075605;28;19924;-84
2021/08/23 04:15:54;;;;;;;;;;;16.50;99.90;;;;;;5075392;28;19925;-84
2021/08/23 04:18:21;;;;;;;;;;;16.50;99.90;;;;;;5074819;28;19932;-84
2021/08/23 04:20:48;;;;;;;;;;;16.50;99.90;;;;;;5075374;28;20019;-84
2021/08/23 04:23:15;;;;;;;;;;;16.50;99.90;;;;;;5075215;28;19936;-84
2021/08/23 04:25:43;;;;;;;;;;;16.50;99.90;;;;;;5075251;28;19947;-85
2021/08/23 04:28:10;;;;;;;;;;;16.50;99.90;;;;;;5075123;28;19928;-84
2021/08/23 04:30:37;;;;;;;;;;;16.50;99.90;;;;;;5074942;28;19928;-84
2021/08/23 04:33:03;;;;;;;;;;;16.50;99.90;;;;;;5075237;28;19924;-84
2021/08/23 04:35:30;;;;;;;;;;;16.50;99.90;;;;;;5074972;28;20344;-84
2021/08/23 04:37:57;;;;;;;;;;;16.40;99.90;;;;;;5075022;28;19928;-84
2021/08/23 04:40:24;;;;;;;;;;;16.40;99.90;;;;;;5074954;28;20332;-84
2021/08/23 04:42:52;;;;;;;;;;;16.40;99.90;;;;;;5074743;28;19924;-84
2021/08/23 04:45:19;;;;;;;;;;;16.40;99.90;;;;;;5075151;28;19925;-84
2021/08/23 04:47:46;;;;;;;;;;;16.40;99.90;;;;;;5074984;28;19932;-84
2021/08/23 04:50:13;;;;;;;;;;;16.40;99.90;;;;;;5074745;28;20386;-84
2021/08/23 04:52:43;;;;;;;;;;;16.40;99.90;;;;;;5074778;28;19934;-84
2021/08/23 04:55:10;;;;;;;;;;;16.30;99.90;;;;;;5074797;28;19925;-84
2021/08/23 04:57:37;;;;;;;;;;;16.40;99.90;;;;;;5074730;28;19962;-84
2021/08/23 05:00:07;;;;;;;;;;;16.40;99.90;;;;;;5075014;28;19924;-84
2021/08/23 05:02:34;;;;;;;;;;;16.40;99.90;;;;;;5074983;28;19924;-84
2021/08/23 05:05:01;;;;;;;;;;;16.40;99.90;;;;;;5074708;28;19925;-84
2021/08/23 05:07:28;;;;;;;;;;;16.30;99.90;;;;;;5074737;28;19931;-84
2021/08/23 05:09:54;;;;;;;;;;;16.30;99.90;;;;;;5074725;28;19935;-84
2021/08/23 05:12:21;;;;;;;;;;;16.30;99.90;;;;;;5074632;28;20371;-84
2021/08/23 05:14:48;;;;;;;;;;;16.30;99.90;;;;;;5074560;28;19942;-84
2021/08/23 05:17:16;;;;;;;;;;;16.30;99.90;;;;;;5074486;28;19925;-84
2021/08/23 05:19:43;;;;;;;;;;;16.30;99.90;;;;;;5074481;28;20265;-84
2021/08/23 05:22:10;;;;;;;;;;;16.30;99.90;;;;;;5074545;28;19924;-84
2021/08/23 05:24:37;;;;;;;;;;;16.30;99.90;;;;;;5074462;28;19929;-84
2021/08/23 05:27:04;;;;;;;;;;;16.30;99.90;;;;;;5074441;28;19958;-84
2021/08/23 05:29:31;;;;;;;;;;;16.30;99.90;;;;;;5077308;28;19924;-84
2021/08/23 05:31:58;;;;;;;;;;;16.30;99.90;;;;;;5078065;28;20271;-84
2021/08/23 05:34:26;;;;;;;;;;;16.30;99.90;;;;;;5078117;28;20345;-84
2021/08/23 05:36:53;;;;;;;;;;;16.30;99.90;;;;;;5078097;28;19935;-84
2021/08/23 05:39:20;;;;;;;;;;;16.40;99.90;;;;;;5077947;28;19925;-84
2021/08/23 05:41:47;;;;;;;;;;;16.40;99.90;;;;;;5077697;28;20442;-84
2021/08/23 05:44:14;;;;;;;;;;;16.40;99.90;;;;;;5077879;28;19936;-84
2021/08/23 05:46:40;;;;;;;;;;;16.50;99.90;;;;;;5077868;28;19925;-84
2021/08/23 05:49:07;;;;;;;;;;;16.50;99.90;;;;;;5077819;28;19925;-84
2021/08/23 05:51:35;;;;;;;;;;;16.50;99.90;;;;;;5077823;28;19924;-84
2021/08/23 05:54:02;;;;;;;;;;;16.50;99.90;;;;;;5077628;28;19924;-84
2021/08/23 05:56:29;;;;;;;;;;;16.60;99.90;;;;;;5077931;28;19935;-84
2021/08/23 05:58:56;;;;;;;;;;;16.60;99.90;;;;;;5077835;28;19924;-84
2021/08/23 06:01:23;;;;;;;;;;;16.60;99.90;;;;;;5077663;28;20360;-84
2021/08/23 06:03:50;;;;;;;;;;;16.60;99.90;;;;;;5077583;28;19999;-85
2021/08/23 06:06:17;;;;;;;;;;;16.60;99.90;;;;;;5077510;28;19935;-84
2021/08/23 06:08:45;;;;;;;;;;;16.70;99.90;;;;;;5077521;28;19986;-84
2021/08/23 06:11:12;;;;;;;;;;;16.70;99.90;;;;;;5077354;28;19936;-85
2021/08/23 06:13:39;;;;;;;;;;;16.70;99.90;;;;;;5077295;28;19925;-84
2021/08/23 06:16:06;;;;;;;;;;;16.70;99.90;;;;;;5077533;28;19932;-84
2021/08/23 06:18:32;;;;;;;;;;;16.70;99.90;;;;;;5077413;28;19925;-84
2021/08/23 06:21:00;;;;;;;;;;;16.60;99.90;;;;;;5077252;28;20272;-84
2021/08/23 06:23:27;;;;;;;;;;;16.60;99.90;;;;;;5077113;28;19928;-84
2021/08/23 06:25:55;;;;;;;;;;;16.60;99.90;;;;;;5077109;28;19935;-84
2021/08/23 06:28:22;;;;;;;;;;;16.60;99.90;;;;;;5077241;28;19924;-84
2021/08/23 06:30:49;;;;;;;;;;;16.60;99.90;;;;;;5076980;28;20352;-84
2021/08/23 06:33:16;;;;;;;;;;;16.50;99.90;;;;;;5077012;28;19925;-84
2021/08/23 06:35:44;;;;;;;;;;;16.50;99.90;;;;;;5077046;28;19925;-84
2021/08/23 06:38:11;;;;;;;;;;;16.50;99.90;;;;;;5076834;28;20352;-84
2021/08/23 06:40:37;;;;;;;;;;;16.50;99.90;;;;;;5075941;28;19928;-84
2021/08/23 06:43:06;;;;;;;;;;;16.50;99.90;;;;;;5076731;28;19925;-85
2021/08/23 06:45:33;;;;;;;;;;;16.50;99.90;;;;;;5076789;28;20375;-84
2021/08/23 06:47:59;;;;;;;;;;;16.50;99.90;;;;;;5076768;28;19925;-84
2021/08/23 06:50:26;;;;;;;;;;;16.50;99.90;;;;;;5076653;28;19935;-85
2021/08/23 06:52:53;;;;;;;;;;;16.50;99.90;;;;;;5076898;28;19925;-85
2021/08/23 06:55:20;;;;;;;;;;;16.50;99.90;;;;;;5076804;28;19935;-85
2021/08/23 06:57:47;;;;;;;;;;;16.50;99.90;;;;;;5076703;28;19935;-84
2021/08/23 07:00:15;;;;;;;;;;;16.60;99.90;;;;;;5076571;28;19925;-84
2021/08/23 07:02:42;;;;;;;;;;;16.60;99.90;;;;;;5076554;28;19924;-84
2021/08/23 07:05:09;;;;;;;;;;;16.60;99.90;;;;;;5076470;28;19935;-84
2021/08/23 07:07:36;;;;;;;;;;;16.60;99.90;;;;;;5076317;28;19971;-84
2021/08/23 07:10:03;;;;;;;;;;;16.60;99.90;;;;;;5076228;28;19983;-84
2021/08/23 07:12:30;;;;;;;;;;;16.70;99.90;;;;;;5076345;28;19934;-84
2021/08/23 07:14:57;;;;;;;;;;;16.70;99.90;;;;;;5076320;28;20375;-84
2021/08/23 07:17:25;;;;;;;;;;;16.70;99.90;;;;;;5076146;28;19934;-84
2021/08/23 07:19:52;;;;;;;;;;;16.80;99.90;;;;;;5076140;28;19924;-84
2021/08/23 07:22:19;;;;;;;;;;;17.30;99.90;;;;;;5076274;28;19924;-84
2021/08/23 07:24:46;;;;;;;;;;;17.90;99.90;;;;;;5076200;28;19924;-84
2021/08/23 07:27:13;;;;;;;;;;;19.00;99.90;;;;;;5075996;28;20280;-83
2021/08/23 07:29:39;;;;;;;;;;;20.20;99.90;;;;;;5075918;28;19935;-82
2021/08/23 07:32:06;;;;;;;;;;;21.90;99.90;;;;;;5075686;28;20398;-83
2021/08/23 07:34:35;;;;;;;2.65;1.25;;;24.00;99.90;;;;;;5074387;28;20429;-82
2021/08/23 07:37:02;;;;;;;3.33;0.85;;;25.60;99.90;;;;;;5075490;28;20460;-82
2021/08/23 07:39:29;;;;;;;1.88;1.08;;;25.90;99.90;;;;;;5075484;28;20048;-82
2021/08/23 07:41:56;;;;;;;1.65;0.90;;;26.90;99.90;;;;;;5075082;28;20052;-82
2021/08/23 07:44:23;;;;;;;1.98;1.20;;;27.40;99.90;;;;;;5075244;28;20055;-82
2021/08/23 07:46:50;;;;;;;1.10;0.70;;;26.40;99.90;;;;;;5075053;28;20044;-82
2021/08/23 07:49:17;;;;;;;1.25;0.70;;;25.90;99.90;;;;;;5075022;28;20480;-82
2021/08/23 07:51:46;;;;;;;1.88;1.30;;;25.60;99.90;;;;;;5074896;28;20044;-82
2021/08/23 07:54:16;;;;;;;1.02;0.73;;;25.20;99.90;;;;;;5075137;28;20346;-82
2021/08/23 07:56:43;;;;;;;1.85;1.05;;;24.40;99.90;;;;;;5075121;28;20044;-82
2021/08/23 07:59:10;;;;;;;1.30;0.98;;;23.30;99.90;;;;;;5075006;28;20044;-82
2021/08/23 08:01:37;;;;;;;2.70;1.63;;;22.30;99.90;;;;;;5074766;28;20066;-82
2021/08/23 08:04:05;;;;;;;4.47;2.13;;;21.50;99.90;;;;;;5074891;28;20471;-82
2021/08/23 08:06:32;;;;;;;2.80;1.13;;;20.90;99.90;;;;;;5074824;28;20452;-82
2021/08/23 08:09:00;;;;;;;2.47;0.80;;;20.40;99.90;;;;;;5074945;28;20049;-82
2021/08/23 08:11:27;;;;;;;2.97;1.25;;;19.90;99.90;;;;;;5074764;28;20048;-82
2021/08/23 08:13:54;;;;;;;1.55;1.15;;;19.50;99.90;;;;;;5074681;28;20049;-81
2021/08/23 08:16:21;;;;;;;5.43;1.48;;;19.30;99.90;;;;;;5074747;28;20048;-82
2021/08/23 08:18:48;;;;;;;2.72;1.42;;;19.10;99.90;;;;;;5074911;28;20051;-82
2021/08/23 08:21:16;;;;;;;2.85;1.48;;;19.00;99.90;;;;;;5074610;28;20048;-82
2021/08/23 08:23:43;;;;;;;5.38;1.40;;;18.90;99.90;;;;;;5074679;28;20059;-82
2021/08/23 08:26:11;;;;;;;2.42;1.38;;;18.80;99.90;;;;;;5074744;28;20392;-82
2021/08/23 08:28:38;;;;;;;2.08;1.13;;;18.80;99.90;;;;;;5074483;28;20377;-82
2021/08/23 08:31:05;;;;;;;1.23;0.90;;;18.70;99.90;;;;;;5074794;28;20048;-82
2021/08/23 08:33:32;;;;;;;2.70;1.10;;;18.70;99.90;;;;;;5074623;28;20054;-82
2021/08/23 08:35:59;;;;;;;3.67;1.35;;;18.70;99.90;;;;;;5074797;28;20056;-82
2021/08/23 08:38:26;;;;;;;2.65;1.52;;;18.70;99.90;;;;;;5074569;28;20049;-82
2021/08/23 08:40:54;;;;;;;2.28;1.33;;;18.70;99.90;;;;;;5074281;28;20056;-82
2021/08/23 08:43:22;;;;;;;1.92;1.30;;;18.60;99.90;;;;;;5074242;28;20496;-82
2021/08/23 08:45:49;;;;;;;5.32;1.15;;;18.60;99.90;;;;;;5074833;28;20067;-82
2021/08/23 08:48:18;;;;;;;4.00;1.30;;;18.50;99.90;;;;;;5074441;28;20460;-82
2021/08/23 08:50:45;;;;;;;3.15;1.08;;;18.40;99.90;;;;;;5074627;28;20044;-82
2021/08/23 08:53:12;;;;;;;3.55;1.77;;;18.40;99.90;;;;;;5074396;28;20059;-82
2021/08/23 08:55:40;;;;;;;2.13;1.30;;;18.40;99.90;;;;;;5074496;28;20059;-82
2021/08/23 08:58:07;;;;;;;4.22;1.67;;;18.30;99.90;;;;;;5074333;28;20044;-82
2021/08/23 09:00:36;;;;;;;;;;;18.40;99.90;;;;;;5075023;28;20044;-83
2021/08/23 09:03:03;;;;;;;;;;;18.40;99.90;;;;;;5075443;28;20011;-83
2021/08/23 09:05:37;;;;;;;;;;;18.40;99.90;;;;;;5078668;28;20362;-84
2021/08/23 09:08:05;;;;;;;;;;;18.50;99.90;;;;;;5078638;28;19920;-83
2021/08/23 09:10:39;;;;;;;;;;;18.50;99.90;;;;;;5078373;28;19920;-83
2021/08/23 09:13:11;;;;;;;;;;;18.50;99.90;;;;;;5078443;28;19920;-83
2021/08/23 09:15:52;;;;;;;;;;;18.60;99.90;;;;;;5078452;28;19920;-83
2021/08/23 09:18:21;;;;;;;;;;;18.70;99.90;;;;;;5078538;28;19924;-84
2021/08/23 09:20:56;;;;;;;;;;;18.70;99.90;;;;;;5078421;28;19924;-83
2021/08/23 09:23:32;;;;;;;;;;;18.80;99.90;;;;;;5078397;28;19926;-83
2021/08/23 09:26:05;;;;;;;;;;;18.90;99.90;;;;;;5078565;28;19924;-83
2021/08/23 09:28:32;;;;;;;;;;;19.00;99.90;;;;;;5078345;28;19920;-83
2021/08/23 09:31:03;;;;;;;;;;;19.10;99.90;;;;;;5078455;28;19928;-83
2021/08/23 09:33:30;;;;;;;;;;;19.20;99.90;;;;;;5078094;28;20340;-83
2021/08/23 09:35:56;;;;;;;;;;;19.20;99.90;;;;;;5078394;28;19925;-83
2021/08/23 09:38:23;;;;;;;;;;;19.30;99.90;;;;;;5078071;28;19920;-83
2021/08/23 09:40:53;;;;;;;;;;;19.30;99.90;;;;;;5077158;28;19920;-84
2021/08/23 09:43:19;;;;;;;;;;;19.30;99.90;;;;;;5077981;28;19931;-83
2021/08/23 09:45:48;;;;;;;;;;;19.20;99.90;;;;;;5077809;28;19920;-83
2021/08/23 09:48:16;;;;;;;;;;;19.10;99.90;;;;;;5077873;28;19928;-83
2021/08/23 09:50:46;;;;;;;;;;;19.00;99.90;;;;;;5077766;28;19920;-83
2021/08/23 09:53:15;;;;;;;;;;;18.90;99.90;;;;;;5078116;28;19930;-84
2021/08/23 09:55:43;;;;;;;;;;;18.80;99.90;;;;;;5077775;28;19920;-83
2021/08/23 09:58:14;;;;;;;;;;;18.90;99.90;;;;;;5077619;28;20375;-84
2021/08/23 10:00:42;;;;;;;;;;;18.80;99.90;;;;;;5077119;28;19920;-84
2021/08/23 10:03:14;;;;;;;;;;;18.80;99.90;;;;;;5077822;28;19931;-83
2021/08/23 10:05:47;;;;;;;;;;;18.80;99.90;;;;;;5077705;28;20015;-83
2021/08/23 10:08:16;;;;;;;;;;;18.80;99.90;;;;;;5077598;28;19931;-83
2021/08/23 10:10:44;;;;;;;;;;;18.90;99.90;;;;;;5077495;28;19921;-83
2021/08/23 10:13:13;;;;;;;;;;;18.80;99.90;;;;;;5077593;28;19921;-83
2021/08/23 10:15:40;;;;;;;;;;;18.80;99.90;;;;;;5075938;28;19920;-84
2021/08/23 10:18:09;;;;;;;;;;;18.80;99.90;;;;;;5077501;28;19920;-84
2021/08/23 10:20:39;;;;;;;;;;;18.80;99.90;;;;;;5077281;28;19921;-83
2021/08/23 10:23:09;;;;;;;;;;;18.80;99.90;;;;;;5077401;28;19985;-83
2021/08/23 10:25:37;;;;;;;;;;;18.80;99.90;;;;;;5077157;28;19930;-83
2021/08/23 10:28:07;;;;;;;;;;;18.80;99.90;;;;;;5077217;28;19920;-84
2021/08/23 10:30:36;;;;;;;;;;;18.80;99.90;;;;;;5077251;28;19920;-83
2021/08/23 10:33:14;;;;;;;;;;;18.80;99.90;;;;;;5077255;28;19920;-83
2021/08/23 10:35:52;;;;;;;;;;;18.80;99.90;;;;;;5077202;28;19920;-83
2021/08/23 10:38:22;;;;;;;;;;;18.90;99.90;;;;;;5077209;28;20302;-84
2021/08/23 10:40:50;;;;;;;;;;;18.90;99.90;;;;;;5076735;28;19920;-83
2021/08/23 10:43:19;;;;;;;;;;;18.80;99.90;;;;;;5077229;28;19928;-83
2021/08/23 10:45:48;;;;;;;;;;;18.80;99.90;;;;;;5076740;28;19921;-83
2021/08/23 10:48:16;;;;;;;;;;;18.70;99.90;;;;;;5076648;28;19920;-83
2021/08/23 10:50:44;;;;;;;;;;;18.70;99.90;;;;;;5076636;28;19993;-83
2021/08/23 10:53:13;;;;;;;;;;;18.60;99.90;;;;;;5076670;28;19921;-83
2021/08/23 10:55:42;;;;;;;;;;;18.60;99.90;;;;;;5076815;28;19932;-84
2021/08/23 10:58:11;;;;;;;;;;;18.70;99.90;;;;;;5076541;28;19931;-84
2021/08/23 11:00:40;;;;;;;;;;;18.70;99.90;;;;;;5076593;28;19932;-88
2021/08/23 11:03:08;;;;;;;;;;;18.70;99.90;;;;;;5076548;28;19920;-80
2021/08/23 11:05:36;;;;;;;;;;;18.80;99.90;;;;;;5076281;28;19952;-80
2021/08/23 11:08:08;;;;;;;;;;;18.80;99.90;;;;;;5076586;28;20023;-81
2021/08/23 11:10:39;;;;;;;;;;;18.80;99.90;;;;;;5076450;28;19974;-84
2021/08/23 11:13:15;;;;;;;;;;;18.80;99.90;;;;;;5075999;28;20375;-81
2021/08/23 11:15:42;;;;;;;;;;;18.80;99.90;;;;;;5076501;28;19920;-79
2021/08/23 11:18:11;;;;;;;;;;;18.80;99.90;;;;;;5076360;28;20012;-81
2021/08/23 11:20:39;;;;;;;;;;;18.80;99.90;;;;;;5076173;28;20245;-84
2021/08/23 11:23:07;;;;;;;;;;;18.80;99.90;;;;;;5076167;28;19921;-85
2021/08/23 11:25:35;;;;;;;;;;;18.90;99.90;;;;;;5075747;28;19920;-85
2021/08/23 11:28:02;;;;;;;;;;;18.90;99.90;;;;;;5075964;28;19927;-82
2021/08/23 11:30:31;;;;;;;;;;;19.00;99.90;;;;;;5076355;28;19920;-84
2021/08/23 11:32:58;;;;;;;;;;;19.00;99.90;;;;;;5075642;28;19931;-81
2021/08/23 11:35:25;;;;;;;;;;;19.00;99.90;;;;;;5075812;28;20252;-84
2021/08/23 11:37:55;;;;;;;;;;;19.00;99.90;;;;;;5075836;28;19931;-89
2021/08/23 11:40:22;;;;;;;;;;;19.00;99.90;;;;;;5075800;28;20237;-85
2021/08/23 11:42:52;;;;;;;;;;;19.10;99.90;;;;;;5075597;28;19921;-80
2021/08/23 11:45:20;;;;;;;;;;;19.00;99.90;;;;;;5075187;28;19920;-81
2021/08/23 11:47:49;;;;;;;;;;;19.00;99.90;;;;;;5075304;28;20378;-80
2021/08/23 11:50:15;;;;;;;;;;;19.10;99.90;;;;;;5075689;28;19920;-79
2021/08/23 11:52:42;;;;;;;;;;;19.00;99.90;;;;;;5075343;28;19926;-79
2021/08/23 11:55:09;;;;;;;;;;;19.10;99.90;;;;;;5075633;28;19930;-80
2021/08/23 11:57:36;;;;;;;;;;;19.10;99.90;;;;;;5075414;28;20329;-85
2021/08/23 12:00:05;;;;;;;;;;;19.20;99.90;;;;;;5075286;28;19920;-79
2021/08/23 12:02:34;;;;;;;;;;;19.20;99.90;;;;;;5075650;28;19920;-79
2021/08/23 12:05:13;;;;;;;;;;;19.20;99.90;;;;;;5075329;28;20348;-79
2021/08/23 12:07:45;;;;;;;;;;;19.30;99.90;;;;;;5075294;28;19946;-79
2021/08/23 12:10:23;;;;;;;;;;;19.40;99.90;;;;;;5075296;28;19920;-78
2021/08/23 12:12:51;;;;;;;;;;;19.40;99.90;;;;;;5075398;28;19947;-78
2021/08/23 12:15:21;;;;;;;;;;;19.50;99.90;;;;;;5075452;28;19928;-78
2021/08/23 12:17:48;;;;;;;;;;;19.60;99.90;;;;;;5075183;28;20256;-79
2021/08/23 12:20:19;;;;;;;;;;;19.60;99.90;;;;;;5075131;28;19928;-78
2021/08/23 12:22:51;;;;;;;;;;;19.50;99.90;;;;;;5075168;28;19931;-78
2021/08/23 12:25:25;;;;;;;;;;;19.50;99.90;;;;;;5068877;28;20456;-77
2021/08/23 12:27:55;;;;;;;;;;;19.40;99.90;;;;;;5075281;28;19974;-78
2021/08/23 12:30:27;;;;;;;;;;;19.50;99.90;;;;;;5075227;28;19920;-78
2021/08/23 12:32:55;;;;;;;;;;;19.40;99.90;;;;;;5075176;28;19998;-79
2021/08/23 12:35:28;;;;;;;;;;;19.40;99.90;;;;;;5075223;28;19931;-78
2021/08/23 12:37:56;;;;;;;;;;;19.50;99.90;;;;;;5074195;28;20272;-79
2021/08/23 12:40:25;;;;;;;;;;;19.60;99.90;;;;;;5074939;28;19920;-79
2021/08/23 12:42:56;;;;;;;;;;;19.60;99.90;;;;;;5074737;28;20252;-78
2021/08/23 12:45:24;;;;;;;;;;;19.70;99.90;;;;;;5075375;28;19920;-78
2021/08/23 12:47:52;;;;;;;;;;;19.70;99.90;;;;;;5074842;28;20368;-78
2021/08/23 12:50:19;;;;;;;;;;;19.70;99.90;;;;;;5074689;28;20366;-78
2021/08/23 12:52:52;;;;;;;;;;;19.90;99.90;;;;;;5074924;28;19920;-78
2021/08/23 12:55:20;;;;;;;;;;;19.90;99.90;;;;;;5074818;28;19927;-78
2021/08/23 12:57:50;;;;;;;;;;;19.90;99.90;;;;;;5074894;28;20460;-78
2021/08/23 13:00:18;;;;;;;;;;;19.90;99.90;;;;;;5074837;28;19924;-78
2021/08/23 13:02:47;;;;;;;;;;;20.00;99.90;;;;;;5074610;28;19920;-78
2021/08/23 13:05:15;;;;;;;;;;;20.00;99.90;;;;;;5074756;28;19920;-78
2021/08/23 13:07:43;;;;;;;;;;;20.00;99.90;;;;;;5074559;28;20340;-78
2021/08/23 13:10:15;;;;;;;;;;;20.00;99.90;;;;;;5074785;28;19920;-78
2021/08/23 13:12:42;;;;;;;;;;;20.00;99.90;;;;;;5074588;28;19921;-78
2021/08/23 13:15:10;;;;;;;;;;;20.10;99.90;;;;;;5074526;28;19920;-78
2021/08/23 13:17:39;;;;;;;;;;;20.10;99.90;;;;;;5074792;28;19931;-90
2021/08/23 13:20:07;;;;;;;;;;;20.20;99.90;;;;;;5074714;28;20023;-84
2021/08/23 13:22:41;;;;;;;;;;;20.20;99.90;;;;;;5075064;28;19967;-88
2021/08/23 13:25:09;;;;;;;;;;;20.30;99.90;;;;;;5074801;28;19920;-87
2021/08/23 13:27:39;;;;;;;;;;;20.30;99.90;;;;;;5074747;28;19990;-88
2021/08/23 13:30:07;;;;;;;;;;;20.20;99.90;;;;;;5074873;28;19927;-86
2021/08/23 13:32:36;;;;;;;;;;;20.20;99.90;;;;;;5074537;28;19931;-84
2021/08/23 13:35:04;;;;;;;;;;;20.30;99.90;;;;;;5074967;28;19927;-86
2021/08/23 13:37:33;;;;;;;;;;;20.30;99.90;;;;;;5074597;28;19935;-86
2021/08/23 13:40:01;;;;;;;;;;;20.30;99.90;;;;;;5074537;28;19931;-87
2021/08/23 13:42:30;;;;;;;;;;;20.30;99.90;;;;;;5074101;28;19932;-86
2021/08/23 13:44:59;;;;;;;;;;;20.30;99.90;;;;;;5074700;28;19920;-86
2021/08/23 13:47:27;;;;;;;;;;;20.20;99.90;;;;;;5074576;28;19921;-86
2021/08/23 13:49:55;;;;;;;;;;;20.20;99.90;;;;;;5076291;28;20352;-86
2021/08/23 13:52:23;;;;;;;;;;;20.20;99.90;;;;;;5076562;28;20007;-87
2021/08/23 13:54:50;;;;;;;;;;;20.10;99.90;;;;;;5076786;28;20352;-86
2021/08/23 13:57:17;;;;;;;;;;;20.20;99.90;;;;;;5077765;28;19924;-86
2021/08/23 13:59:44;;;;;;;;;;;20.20;99.90;;;;;;5077982;28;19920;-85
2021/08/23 14:02:24;;;;;;;;;;;20.20;99.90;;;;;;5077953;28;19920;-86
2021/08/23 14:04:51;;;;;;;;;;;20.20;99.90;;;;;;5077701;28;20344;-86
2021/08/23 14:07:19;;;;;;;;;;;20.10;99.90;;;;;;5070461;28;19920;-86
2021/08/23 14:09:46;;;;;;;;;;;20.10;99.90;;;;;;5077602;28;19920;-87